createdAt,value
2018-11-25T00:00:08.341Z,957.14
2018-11-25T00:02:34.710Z,957.10
2018-11-25T00:05:01.051Z,957.11
2018-11-25T00:07:34.341Z,957.19
2018-11-25T00:09:53.725Z,957.20
2018-11-25T00:12:20.003Z,957.12
2018-11-25T00:14:46.316Z,957.09
2018-11-25T00:17:12.688Z,957.03
2018-11-25T00:19:39.052Z,956.94
2018-11-25T00:22:05.332Z,956.91
2018-11-25T00:24:31.700Z,956.82
2018-11-25T00:26:58.028Z,956.77
2018-11-25T00:29:24.304Z,956.76
2018-11-25T00:31:50.629Z,956.75
2018-11-25T00:34:16.968Z,956.69
2018-11-25T00:36:43.276Z,956.65
2018-11-25T00:39:09.638Z,956.65
2018-11-25T00:41:35.953Z,956.61
2018-11-25T00:44:02.279Z,956.61
2018-11-25T00:46:28.591Z,956.53
2018-11-25T00:48:54.913Z,956.55
2018-11-25T00:51:21.256Z,956.57
2018-11-25T00:53:47.538Z,956.54
2018-11-25T00:56:13.866Z,956.47
2018-11-25T00:58:40.278Z,956.46
2018-11-25T01:01:06.603Z,956.45
2018-11-25T01:03:32.925Z,956.44
2018-11-25T01:05:59.225Z,956.49
2018-11-25T01:08:25.508Z,956.48
2018-11-25T01:10:51.828Z,956.44
2018-11-25T01:13:18.122Z,956.37
2018-11-25T01:15:44.427Z,956.44
2018-11-25T01:18:10.736Z,956.39
2018-11-25T01:20:37.073Z,956.36
2018-11-25T01:23:03.371Z,956.34
2018-11-25T01:25:29.657Z,956.34
2018-11-25T01:27:56.002Z,956.31
2018-11-25T01:30:22.316Z,956.24
2018-11-25T01:32:48.623Z,956.11
2018-11-25T01:35:14.928Z,956.23
2018-11-25T01:37:41.249Z,956.22
2018-11-25T01:40:07.552Z,956.24
2018-11-25T01:42:33.856Z,956.17
2018-11-25T01:45:00.229Z,956.13
2018-11-25T01:47:26.542Z,956.08
2018-11-25T01:49:52.866Z,956.10
2018-11-25T01:52:19.167Z,956.12
2018-11-25T01:54:45.450Z,956.01
2018-11-25T01:57:11.766Z,956.00
2018-11-25T01:59:38.081Z,955.98
2018-11-25T02:02:04.384Z,956.04
2018-11-25T02:04:30.670Z,956.01
2018-11-25T02:06:56.972Z,955.98
2018-11-25T02:09:23.285Z,955.95
2018-11-25T02:11:49.574Z,955.87
2018-11-25T02:14:15.900Z,955.88
2018-11-25T02:16:42.217Z,955.81
2018-11-25T02:19:08.573Z,955.75
2018-11-25T02:21:34.860Z,955.72
2018-11-25T02:24:01.157Z,955.61
2018-11-25T02:26:27.464Z,955.54
2018-11-25T02:28:53.767Z,955.42
2018-11-25T02:31:20.076Z,955.46
2018-11-25T02:33:46.363Z,955.59
2018-11-25T02:36:12.673Z,955.64
2018-11-25T02:38:38.984Z,955.56
2018-11-25T02:41:05.277Z,955.63
2018-11-25T02:43:31.594Z,955.70
2018-11-25T02:45:57.918Z,955.68
2018-11-25T02:48:24.298Z,955.68
2018-11-25T02:50:50.608Z,955.75
2018-11-25T02:53:16.940Z,955.70
2018-11-25T02:55:43.253Z,955.61
2018-11-25T02:58:09.575Z,955.62
2018-11-25T03:00:35.868Z,955.55
2018-11-25T03:03:02.164Z,955.49
2018-11-25T03:05:28.447Z,955.45
2018-11-25T03:07:54.779Z,955.50
2018-11-25T03:10:21.092Z,955.39
2018-11-25T03:12:47.374Z,955.41
2018-11-25T03:15:13.653Z,955.35
2018-11-25T03:17:39.959Z,955.31
2018-11-25T03:20:06.255Z,955.36
2018-11-25T03:22:32.539Z,955.36
2018-11-25T03:24:58.834Z,955.35
2018-11-25T03:27:25.119Z,955.27
2018-11-25T03:29:51.399Z,955.14
2018-11-25T03:32:17.722Z,955.13
2018-11-25T03:34:44.072Z,955.06
2018-11-25T03:37:10.355Z,955.08
2018-11-25T03:39:36.657Z,955.17
2018-11-25T03:42:02.945Z,955.16
2018-11-25T03:44:29.290Z,955.10
2018-11-25T03:46:55.660Z,955.18
2018-11-25T03:49:21.973Z,955.08
2018-11-25T03:51:48.256Z,955.00
2018-11-25T03:54:14.543Z,954.87
2018-11-25T03:56:40.864Z,954.87
2018-11-25T03:59:07.163Z,954.91
2018-11-25T04:01:33.439Z,955.01
2018-11-25T04:03:59.795Z,955.11
2018-11-25T04:06:26.098Z,955.16
2018-11-25T04:08:52.378Z,955.27
2018-11-25T04:11:18.704Z,955.25
2018-11-25T04:13:45.022Z,955.19
2018-11-25T04:16:11.323Z,955.08
2018-11-25T04:18:37.635Z,955.11
2018-11-25T04:21:04.013Z,955.15
2018-11-25T04:23:30.296Z,955.09
2018-11-25T04:25:56.591Z,955.03
2018-11-25T04:28:23.003Z,955.02
2018-11-25T04:30:49.284Z,954.95
2018-11-25T04:33:15.594Z,955.00
2018-11-25T04:35:41.892Z,954.97
2018-11-25T04:38:08.213Z,954.94
2018-11-25T04:40:34.499Z,954.98
2018-11-25T04:43:00.823Z,955.00
2018-11-25T04:45:27.108Z,955.04
2018-11-25T04:47:53.452Z,954.97
2018-11-25T04:50:19.773Z,954.97
2018-11-25T04:52:46.079Z,954.94
2018-11-25T04:55:12.364Z,954.90
2018-11-25T04:57:38.651Z,954.92
2018-11-25T05:00:06.395Z,954.97
2018-11-25T05:02:32.707Z,954.89
2018-11-25T05:04:59.042Z,954.85
2018-11-25T05:07:25.399Z,954.86
2018-11-25T05:09:51.735Z,954.82
2018-11-25T05:12:18.034Z,954.84
2018-11-25T05:14:44.334Z,954.79
2018-11-25T05:17:10.651Z,954.77
2018-11-25T05:19:36.980Z,954.75
2018-11-25T05:22:03.274Z,954.75
2018-11-25T05:24:29.567Z,954.72
2018-11-25T05:26:55.896Z,954.68
2018-11-25T05:29:22.249Z,954.72
2018-11-25T05:31:48.619Z,954.72
2018-11-25T05:34:14.945Z,954.82
2018-11-25T05:36:41.240Z,954.89
2018-11-25T05:39:07.544Z,954.85
2018-11-25T05:41:33.880Z,954.83
2018-11-25T05:44:00.231Z,954.78
2018-11-25T05:46:26.546Z,954.87
2018-11-25T05:48:52.951Z,954.89
2018-11-25T05:51:19.253Z,954.95
2018-11-25T05:53:45.567Z,954.88
2018-11-25T05:56:11.872Z,954.91
2018-11-25T05:58:38.235Z,954.86
2018-11-25T06:01:04.516Z,954.85
2018-11-25T06:03:30.856Z,954.86
2018-11-25T06:05:57.304Z,954.80
2018-11-25T06:08:23.621Z,954.73
2018-11-25T06:10:49.959Z,954.69
2018-11-25T06:13:16.281Z,954.79
2018-11-25T06:15:42.617Z,954.71
2018-11-25T06:18:08.920Z,954.72
2018-11-25T06:20:35.221Z,954.74
2018-11-25T06:23:01.524Z,954.81
2018-11-25T06:25:27.853Z,954.83
2018-11-25T06:27:54.175Z,954.80
2018-11-25T06:30:20.494Z,954.82
2018-11-25T06:32:46.806Z,954.84
2018-11-25T06:35:13.109Z,954.89
2018-11-25T06:37:39.483Z,954.80
2018-11-25T06:40:05.763Z,954.76
2018-11-25T06:42:32.059Z,954.77
2018-11-25T06:44:58.380Z,954.71
2018-11-25T06:47:24.748Z,954.77
2018-11-25T06:49:51.033Z,954.72
2018-11-25T06:52:17.360Z,954.55
2018-11-25T06:54:43.727Z,954.55
2018-11-25T06:57:10.012Z,954.57
2018-11-25T06:59:36.338Z,954.49
2018-11-25T07:02:02.615Z,954.58
2018-11-25T07:04:28.913Z,954.67
2018-11-25T07:06:55.210Z,954.64
2018-11-25T07:09:21.509Z,954.78
2018-11-25T07:11:47.859Z,954.89
2018-11-25T07:14:14.156Z,954.88
2018-11-25T07:16:40.519Z,954.96
2018-11-25T07:19:06.833Z,954.85
2018-11-25T07:21:33.201Z,954.84
2018-11-25T07:23:59.563Z,954.83
2018-11-25T07:26:25.927Z,954.84
2018-11-25T07:28:52.213Z,954.80
2018-11-25T07:31:18.527Z,954.79
2018-11-25T07:33:44.845Z,954.73
2018-11-25T07:36:11.141Z,954.85
2018-11-25T07:38:37.462Z,954.80
2018-11-25T07:41:03.772Z,954.76
2018-11-25T07:43:30.069Z,954.84
2018-11-25T07:45:56.402Z,954.80
2018-11-25T07:48:22.731Z,954.87
2018-11-25T07:50:49.017Z,954.93
2018-11-25T07:53:15.331Z,954.96
2018-11-25T07:55:41.676Z,954.95
2018-11-25T07:58:07.983Z,954.84
2018-11-25T08:00:34.312Z,954.75
2018-11-25T08:03:00.629Z,954.75
2018-11-25T08:05:26.917Z,954.70
2018-11-25T08:07:53.226Z,954.67
2018-11-25T08:10:19.544Z,954.62
2018-11-25T08:12:45.847Z,954.65
2018-11-25T08:15:12.142Z,954.75
2018-11-25T08:17:38.524Z,954.77
2018-11-25T08:20:04.820Z,954.66
2018-11-25T08:22:31.113Z,954.61
2018-11-25T08:24:57.414Z,954.69
2018-11-25T08:27:23.713Z,954.72
2018-11-25T08:29:50.027Z,954.71
2018-11-25T08:32:16.315Z,954.63
2018-11-25T08:34:42.652Z,954.61
2018-11-25T08:37:08.986Z,954.66
2018-11-25T08:39:35.284Z,954.57
2018-11-25T08:42:01.621Z,954.54
2018-11-25T08:44:27.900Z,954.50
2018-11-25T08:46:54.197Z,954.42
2018-11-25T08:49:20.505Z,954.39
2018-11-25T08:51:46.802Z,954.36
2018-11-25T08:54:13.123Z,954.36
2018-11-25T08:56:39.431Z,954.34
2018-11-25T08:59:05.738Z,954.29
2018-11-25T09:01:32.034Z,954.23
2018-11-25T09:03:58.359Z,954.32
2018-11-25T09:06:24.683Z,954.26
2018-11-25T09:08:51.003Z,954.09
2018-11-25T09:11:17.310Z,954.13
2018-11-25T09:13:43.619Z,954.11
2018-11-25T09:16:09.912Z,954.04
2018-11-25T09:18:36.214Z,953.99
2018-11-25T09:21:02.545Z,953.90
2018-11-25T09:23:28.865Z,953.76
2018-11-25T09:25:55.164Z,953.72
2018-11-25T09:28:21.467Z,953.74
2018-11-25T09:30:47.797Z,953.73
2018-11-25T09:33:14.102Z,953.63
2018-11-25T09:35:40.411Z,953.63
2018-11-25T09:38:06.708Z,953.57
2018-11-25T09:40:33.029Z,953.61
2018-11-25T09:42:59.363Z,953.53
2018-11-25T09:45:25.727Z,953.56
2018-11-25T09:47:52.008Z,953.38
2018-11-25T09:50:18.308Z,953.44
2018-11-25T09:52:44.600Z,953.44
2018-11-25T09:55:10.923Z,953.39
2018-11-25T09:57:37.222Z,953.42
2018-11-25T10:00:06.720Z,953.38
2018-11-25T10:02:33.009Z,953.32
2018-11-25T10:04:59.319Z,953.26
2018-11-25T10:07:25.642Z,953.31
2018-11-25T10:09:51.943Z,953.26
2018-11-25T10:12:18.229Z,953.20
2018-11-25T10:14:44.565Z,953.12
2018-11-25T10:17:10.868Z,953.10
2018-11-25T10:19:37.152Z,953.05
2018-11-25T10:22:03.517Z,953.04
2018-11-25T10:24:29.864Z,952.92
2018-11-25T10:26:56.167Z,952.94
2018-11-25T10:29:22.467Z,952.90
2018-11-25T10:31:48.774Z,952.80
2018-11-25T10:34:15.097Z,952.78
2018-11-25T10:36:41.406Z,952.79
2018-11-25T10:39:07.728Z,952.78
2018-11-25T10:41:34.028Z,952.68
2018-11-25T10:44:00.359Z,952.64
2018-11-25T10:46:26.641Z,952.63
2018-11-25T10:48:52.935Z,952.63
2018-11-25T10:51:19.241Z,952.53
2018-11-25T10:53:45.544Z,952.59
2018-11-25T10:56:11.851Z,952.57
2018-11-25T10:58:38.192Z,952.47
2018-11-25T11:01:04.475Z,952.46
2018-11-25T11:03:30.769Z,952.43
2018-11-25T11:05:57.096Z,952.46
2018-11-25T11:08:23.408Z,952.44
2018-11-25T11:10:49.695Z,952.42
2018-11-25T11:13:15.992Z,952.36
2018-11-25T11:15:42.312Z,952.39
2018-11-25T11:18:08.626Z,952.36
2018-11-25T11:20:34.974Z,952.31
2018-11-25T11:23:01.309Z,952.29
2018-11-25T11:25:27.603Z,952.28
2018-11-25T11:27:53.906Z,952.24
2018-11-25T11:30:20.238Z,952.24
2018-11-25T11:32:46.548Z,952.30
2018-11-25T11:35:12.889Z,952.18
2018-11-25T11:37:39.187Z,952.17
2018-11-25T11:40:05.511Z,952.10
2018-11-25T11:42:31.817Z,951.93
2018-11-25T11:44:58.303Z,951.87
2018-11-25T11:47:24.597Z,951.82
2018-11-25T11:49:50.948Z,951.85
2018-11-25T11:52:17.282Z,951.84
2018-11-25T11:54:43.599Z,951.84
2018-11-25T11:57:09.914Z,951.82
2018-11-25T11:59:36.255Z,951.74
2018-11-25T12:02:02.569Z,951.64
2018-11-25T12:04:28.891Z,951.65
2018-11-25T12:06:55.171Z,951.56
2018-11-25T12:09:21.513Z,951.55
2018-11-25T12:11:47.797Z,951.47
2018-11-25T12:14:14.123Z,951.42
2018-11-25T12:16:40.446Z,951.43
2018-11-25T12:19:06.763Z,951.42
2018-11-25T12:21:33.165Z,951.34
2018-11-25T12:23:59.491Z,951.32
2018-11-25T12:26:25.834Z,951.23
2018-11-25T12:28:52.115Z,951.23
2018-11-25T12:31:18.437Z,951.24
2018-11-25T12:33:44.756Z,951.17
2018-11-25T12:36:11.070Z,951.13
2018-11-25T12:38:37.378Z,951.15
2018-11-25T12:41:03.712Z,951.06
2018-11-25T12:43:30.001Z,950.96
2018-11-25T12:45:56.304Z,950.91
2018-11-25T12:48:22.607Z,950.80
2018-11-25T12:50:48.902Z,950.79
2018-11-25T12:53:15.231Z,950.79
2018-11-25T12:55:41.560Z,950.78
2018-11-25T12:58:07.865Z,950.82
2018-11-25T13:00:34.156Z,950.81
2018-11-25T13:03:00.461Z,950.70
2018-11-25T13:05:26.778Z,950.69
2018-11-25T13:07:53.053Z,950.62
2018-11-25T13:10:19.470Z,950.61
2018-11-25T13:12:45.785Z,950.59
2018-11-25T13:15:12.098Z,950.62
2018-11-25T13:17:38.441Z,950.63
2018-11-25T13:20:04.763Z,950.59
2018-11-25T13:22:31.073Z,950.54
2018-11-25T13:24:57.396Z,950.48
2018-11-25T13:27:23.726Z,950.49
2018-11-25T13:29:50.048Z,950.47
2018-11-25T13:32:16.431Z,950.36
2018-11-25T13:34:42.754Z,950.32
2018-11-25T13:37:09.041Z,950.34
2018-11-25T13:39:35.336Z,950.29
2018-11-25T13:42:01.643Z,950.29
2018-11-25T13:44:27.961Z,950.30
2018-11-25T13:46:54.273Z,950.32
2018-11-25T13:49:20.602Z,950.33
2018-11-25T13:51:46.910Z,950.29
2018-11-25T13:54:13.250Z,950.23
2018-11-25T13:56:39.573Z,950.30
2018-11-25T13:59:05.889Z,950.24
2018-11-25T14:01:32.180Z,950.25
2018-11-25T14:03:58.486Z,950.23
2018-11-25T14:06:24.818Z,950.23
2018-11-25T14:08:51.125Z,950.16
2018-11-25T14:11:17.456Z,950.17
2018-11-25T14:13:43.792Z,950.10
2018-11-25T14:16:10.112Z,950.13
2018-11-25T14:18:36.426Z,950.12
2018-11-25T14:21:02.732Z,950.14
2018-11-25T14:23:29.058Z,950.10
2018-11-25T14:25:55.372Z,950.03
2018-11-25T14:28:21.667Z,949.94
2018-11-25T14:30:47.972Z,949.96
2018-11-25T14:33:14.282Z,949.98
2018-11-25T14:35:40.571Z,950.02
2018-11-25T14:38:06.873Z,949.99
2018-11-25T14:40:33.186Z,950.01
2018-11-25T14:42:59.478Z,949.92
2018-11-25T14:45:25.782Z,949.89
2018-11-25T14:47:52.063Z,949.95
2018-11-25T14:50:18.390Z,949.91
2018-11-25T14:52:44.769Z,949.83
2018-11-25T14:55:11.100Z,949.86
2018-11-25T14:57:37.383Z,949.86
2018-11-25T15:00:05.889Z,949.82
2018-11-25T15:02:32.229Z,949.89
2018-11-25T15:04:58.541Z,949.90
2018-11-25T15:07:24.920Z,949.90
2018-11-25T15:09:51.221Z,949.84
2018-11-25T15:12:17.592Z,949.72
2018-11-25T15:14:43.918Z,949.74
2018-11-25T15:17:10.250Z,949.64
2018-11-25T15:19:36.547Z,949.67
2018-11-25T15:22:02.975Z,949.64
2018-11-25T15:24:29.307Z,949.72
2018-11-25T15:26:55.630Z,949.76
2018-11-25T15:29:21.957Z,949.74
2018-11-25T15:31:48.273Z,949.77
2018-11-25T15:34:14.571Z,949.78
2018-11-25T15:36:40.882Z,949.81
2018-11-25T15:39:07.213Z,949.83
2018-11-25T15:41:33.544Z,949.75
2018-11-25T15:43:59.934Z,949.77
2018-11-25T15:46:26.259Z,949.80
2018-11-25T15:48:52.644Z,949.84
2018-11-25T15:51:18.900Z,949.76
2018-11-25T15:53:45.245Z,949.63
2018-11-25T15:56:11.554Z,949.72
2018-11-25T15:58:37.946Z,949.72
2018-11-25T16:01:04.223Z,949.64
2018-11-25T16:03:30.509Z,949.67
2018-11-25T16:05:56.826Z,949.63
2018-11-25T16:08:23.115Z,949.59
2018-11-25T16:10:49.442Z,949.55
2018-11-25T16:13:15.769Z,949.56
2018-11-25T16:15:42.173Z,949.58
2018-11-25T16:18:08.476Z,949.61
2018-11-25T16:20:34.803Z,949.58
2018-11-25T16:23:01.110Z,949.49
2018-11-25T16:25:27.491Z,949.47
2018-11-25T16:27:53.726Z,949.55
2018-11-25T16:30:20.041Z,949.52
2018-11-25T16:32:46.345Z,949.44
2018-11-25T16:35:12.667Z,949.41
2018-11-25T16:37:38.987Z,949.52
2018-11-25T16:40:05.271Z,949.50
2018-11-25T16:42:31.588Z,949.42
2018-11-25T16:44:57.915Z,949.33
2018-11-25T16:47:24.187Z,949.33
2018-11-25T16:49:50.514Z,949.42
2018-11-25T16:52:16.839Z,949.28
2018-11-25T16:54:43.125Z,949.30
2018-11-25T16:57:09.455Z,949.35
2018-11-25T16:59:35.763Z,949.31
2018-11-25T17:02:02.078Z,949.30
2018-11-25T17:04:28.378Z,949.26
2018-11-25T17:06:54.677Z,949.23
2018-11-25T17:09:21.004Z,949.11
2018-11-25T17:11:47.338Z,949.07
2018-11-25T17:14:13.703Z,949.03
2018-11-25T17:16:39.988Z,948.95
2018-11-25T17:19:06.306Z,949.04
2018-11-25T17:21:32.610Z,948.98
2018-11-25T17:23:58.928Z,948.92
2018-11-25T17:26:25.231Z,948.95
2018-11-25T17:28:51.538Z,948.97
2018-11-25T17:31:17.845Z,949.03
2018-11-25T17:33:44.153Z,949.12
2018-11-25T17:36:10.455Z,949.16
2018-11-25T17:38:36.780Z,949.09
2018-11-25T17:41:03.096Z,949.18
2018-11-25T17:43:29.420Z,949.10
2018-11-25T17:45:55.705Z,949.03
2018-11-25T17:48:22.025Z,949.03
2018-11-25T17:50:48.337Z,948.83
2018-11-25T17:53:20.645Z,949.02
2018-11-25T17:55:40.923Z,948.94
2018-11-25T17:58:07.240Z,948.96
2018-11-25T18:00:33.573Z,948.91
2018-11-25T18:02:59.913Z,948.96
2018-11-25T18:05:26.215Z,948.88
2018-11-25T18:07:52.560Z,948.95
2018-11-25T18:10:18.879Z,948.87
2018-11-25T18:12:45.189Z,948.77
2018-11-25T18:15:11.492Z,948.55
2018-11-25T18:17:37.822Z,948.55
2018-11-25T18:20:04.145Z,948.45
2018-11-25T18:22:31.450Z,948.51
2018-11-25T18:24:57.752Z,948.61
2018-11-25T18:27:24.053Z,948.59
2018-11-25T18:29:50.538Z,948.63
2018-11-25T18:32:16.869Z,948.57
2018-11-25T18:34:43.177Z,948.58
2018-11-25T18:37:09.494Z,948.60
2018-11-25T18:39:35.799Z,948.58
2018-11-25T18:42:02.108Z,948.53
2018-11-25T18:44:28.433Z,948.64
2018-11-25T18:46:54.757Z,948.65
2018-11-25T18:49:21.073Z,948.67
2018-11-25T18:51:47.394Z,948.71
2018-11-25T18:54:13.699Z,948.60
2018-11-25T18:56:40.069Z,948.47
2018-11-25T18:59:06.320Z,948.42
2018-11-25T19:01:32.641Z,948.42
2018-11-25T19:03:58.924Z,948.33
2018-11-25T19:06:25.216Z,948.36
2018-11-25T19:08:51.590Z,948.39
2018-11-25T19:11:17.814Z,948.33
2018-11-25T19:13:44.133Z,948.26
2018-11-25T19:16:10.426Z,948.43
2018-11-25T19:18:36.755Z,948.41
2018-11-25T19:21:03.068Z,948.25
2018-11-25T19:23:29.394Z,948.26
2018-11-25T19:25:55.719Z,948.30
2018-11-25T19:28:22.006Z,948.19
2018-11-25T19:30:48.354Z,948.06
2018-11-25T19:33:14.678Z,948.08
2018-11-25T19:35:41.044Z,947.97
2018-11-25T19:38:07.361Z,948.03
2018-11-25T19:40:33.698Z,948.15
2018-11-25T19:43:00.018Z,948.08
2018-11-25T19:45:26.375Z,948.05
2018-11-25T19:47:52.692Z,948.13
2018-11-25T19:50:19.072Z,948.02
2018-11-25T19:52:45.382Z,948.05
2018-11-25T19:55:11.719Z,948.14
2018-11-25T19:57:38.044Z,948.05
2018-11-25T20:00:07.617Z,947.98
2018-11-25T20:02:33.933Z,948.00
2018-11-25T20:05:00.497Z,947.80
2018-11-25T20:07:26.837Z,947.83
2018-11-25T20:09:53.125Z,947.88
2018-11-25T20:12:19.490Z,947.90
2018-11-25T20:14:45.816Z,947.79
2018-11-25T20:17:12.136Z,947.66
2018-11-25T20:19:38.470Z,947.56
2018-11-25T20:22:04.823Z,947.65
2018-11-25T20:24:31.147Z,947.60
2018-11-25T20:26:57.456Z,947.55
2018-11-25T20:29:23.752Z,947.61
2018-11-25T20:31:50.044Z,947.65
2018-11-25T20:34:16.327Z,947.51
2018-11-25T20:36:42.693Z,947.50
2018-11-25T20:39:08.991Z,947.41
2018-11-25T20:41:35.411Z,947.61
2018-11-25T20:44:01.713Z,947.53
2018-11-25T20:46:28.004Z,947.47
2018-11-25T20:48:54.306Z,947.39
2018-11-25T20:51:20.592Z,947.30
2018-11-25T20:53:46.907Z,947.31
2018-11-25T20:56:13.212Z,947.45
2018-11-25T20:58:39.519Z,947.26
2018-11-25T21:01:05.822Z,947.25
2018-11-25T21:03:32.129Z,947.27
2018-11-25T21:05:58.421Z,947.26
2018-11-25T21:08:24.721Z,947.24
2018-11-25T21:10:51.019Z,947.17
2018-11-25T21:13:17.325Z,947.14
2018-11-25T21:15:43.621Z,947.21
2018-11-25T21:18:09.951Z,947.04
2018-11-25T21:20:36.268Z,947.05
2018-11-25T21:23:02.573Z,947.01
2018-11-25T21:25:28.883Z,947.03
2018-11-25T21:27:55.176Z,947.11
2018-11-25T21:30:21.501Z,947.14
2018-11-25T21:32:47.841Z,947.19
2018-11-25T21:35:14.193Z,946.99
2018-11-25T21:37:40.487Z,947.03
2018-11-25T21:40:06.849Z,947.12
2018-11-25T21:42:33.113Z,947.06
2018-11-25T21:44:59.454Z,947.13
2018-11-25T21:47:25.764Z,947.05
2018-11-25T21:49:52.092Z,947.07
2018-11-25T21:52:18.415Z,947.07
2018-11-25T21:54:44.733Z,946.99
2018-11-25T21:57:11.100Z,947.14
2018-11-25T21:59:37.380Z,947.12
2018-11-25T22:02:03.688Z,947.17
2018-11-25T22:04:30.024Z,947.04
2018-11-25T22:06:56.315Z,947.11
2018-11-25T22:09:22.599Z,947.05
2018-11-25T22:11:48.892Z,946.96
2018-11-25T22:14:15.210Z,946.77
2018-11-25T22:16:41.493Z,946.67
2018-11-25T22:19:07.866Z,946.93
2018-11-25T22:21:34.158Z,947.07
2018-11-25T22:24:00.498Z,947.01
2018-11-25T22:26:26.787Z,947.10
2018-11-25T22:28:53.094Z,946.94
2018-11-25T22:31:19.419Z,946.87
2018-11-25T22:33:45.728Z,946.79
2018-11-25T22:36:12.056Z,946.87
2018-11-25T22:38:38.352Z,946.80
2018-11-25T22:41:04.666Z,946.61
2018-11-25T22:43:30.986Z,946.55
2018-11-25T22:45:57.314Z,946.51
2018-11-25T22:48:23.603Z,946.51
2018-11-25T22:50:49.935Z,946.40
2018-11-25T22:53:16.236Z,946.43
2018-11-25T22:55:42.583Z,946.51
2018-11-25T22:58:08.892Z,946.47
2018-11-25T23:00:35.191Z,946.62
2018-11-25T23:03:01.480Z,946.79
2018-11-25T23:05:27.772Z,946.70
2018-11-25T23:07:54.116Z,946.46
2018-11-25T23:10:20.438Z,946.41
2018-11-25T23:12:46.789Z,946.24
2018-11-25T23:15:13.098Z,946.30
2018-11-25T23:17:39.406Z,946.17
2018-11-25T23:20:05.740Z,946.25
2018-11-25T23:22:32.056Z,946.50
2018-11-25T23:24:58.375Z,946.45
2018-11-25T23:27:24.665Z,946.55
2018-11-25T23:29:50.953Z,946.24
2018-11-25T23:32:17.258Z,946.28
2018-11-25T23:34:43.562Z,946.18
2018-11-25T23:37:09.944Z,946.08
2018-11-25T23:39:36.279Z,946.10
2018-11-25T23:42:02.634Z,946.02
2018-11-25T23:44:28.973Z,945.98
2018-11-25T23:46:55.298Z,945.97
2018-11-25T23:49:21.702Z,945.84
2018-11-25T23:51:48.129Z,945.66
2018-11-25T23:54:14.436Z,945.59
2018-11-25T23:56:40.730Z,945.62
2018-11-25T23:59:07.055Z,946.02
